Time;durP1;ratioP1;P1;durP2;ratioP2;P2;SDS_P1;SDS_P2;PMS_P1;PMS_P2;Temp;Humidity;BMP_temperature;BMP_pressure;BME280_temperature;BME280_humidity;BME280_pressure;Samples;Min_cycle;Max_cycle;Signal;HPM_P1;HPM_P2
2021/04/30 00:01:22;;;;;;;5.53;3.62;;;13.40;61.70;;;;;;2347795;53;20925;-67
2021/04/30 00:03:48;;;;;;;7.40;4.25;;;13.40;61.90;;;;;;2351191;53;21013;-66
2021/04/30 00:06:14;;;;;;;5.95;4.03;;;13.30;61.90;;;;;;2369103;53;20985;-68
2021/04/30 00:08:41;;;;;;;6.70;3.75;;;13.40;62.10;;;;;;2368923;53;20945;-68
2021/04/30 00:11:07;;;;;;;6.62;3.87;;;13.30;62.10;;;;;;2364558;53;20968;-66
2021/04/30 00:13:35;;;;;;;7.18;4.50;;;13.30;62.10;;;;;;2602964;52;20989;-68
2021/04/30 00:16:01;;;;;;;5.60;3.80;;;13.30;62.10;;;;;;2369067;53;20958;-66
2021/04/30 00:18:27;;;;;;;6.85;3.90;;;13.30;62.20;;;;;;2369359;53;20946;-68
2021/04/30 00:20:55;;;;;;;6.15;3.95;;;13.30;62.40;;;;;;2368997;53;21072;-67
2021/04/30 00:23:27;;;;;;;7.18;4.57;;;13.30;62.40;;;;;;2368941;53;20970;-67
2021/04/30 00:25:55;;;;;;;5.78;3.75;;;13.30;62.40;;;;;;2374161;53;20986;-66
2021/04/30 00:28:22;;;;;;;8.25;4.12;;;13.30;62.40;;;;;;2345301;54;20959;-67
2021/04/30 00:30:48;;;;;;;6.45;4.40;;;13.30;62.40;;;;;;2368857;53;21969;-68
2021/04/30 00:33:15;;;;;;;6.55;4.37;;;13.30;62.40;;;;;;2351486;53;21769;-65
2021/04/30 00:35:42;;;;;;;6.70;4.12;;;13.30;62.40;;;;;;2364281;53;21989;-66
2021/04/30 00:38:08;;;;;;;7.50;4.35;;;13.30;62.50;;;;;;2358173;53;20959;-66
2021/04/30 00:40:34;;;;;;;7.03;4.05;;;13.30;62.60;;;;;;2357590;53;21075;-67
2021/04/30 00:43:23;;;;;;;7.00;4.25;;;13.30;62.70;;;;;;2332746;53;20917;-66
2021/04/30 00:45:53;;;;;;;8.57;4.45;;;13.20;62.00;;;;;;2368909;53;20997;-67
2021/04/30 00:48:21;;;;;;;6.47;4.07;;;13.30;62.70;;;;;;2369256;53;20930;-66
2021/04/30 00:50:48;;;;;;;7.00;4.82;;;13.20;62.60;;;;;;2368844;53;20910;-67
2021/04/30 00:53:14;;;;;;;7.45;4.57;;;13.20;62.60;;;;;;2370736;53;20953;-68
2021/04/30 00:55:41;;;;;;;6.85;4.62;;;13.20;62.60;;;;;;2371008;53;21010;-68
2021/04/30 00:58:07;;;;;;;6.60;3.83;;;13.20;62.50;;;;;;2623747;52;21392;-67
2021/04/30 01:00:35;;;;;;;6.05;3.95;;;13.20;62.40;;;;;;2370333;53;21395;-68
2021/04/30 01:03:01;;;;;;;5.55;4.07;;;13.10;62.40;;;;;;2371158;53;20953;-66
2021/04/30 01:05:27;;;;;;;6.20;4.43;;;13.10;62.40;;;;;;2370897;53;20939;-66
2021/04/30 01:07:54;;;;;;;5.40;4.00;;;13.10;62.50;;;;;;2595741;52;20935;-67
2021/04/30 01:10:21;;;;;;;7.30;3.95;;;13.10;62.50;;;;;;2368372;53;21033;-67
2021/04/30 01:13:12;;;;;;;5.57;3.85;;;13.10;62.50;;;;;;2371286;53;21419;-67
2021/04/30 01:15:38;;;;;;;6.60;4.20;;;13.10;62.00;;;;;;2355872;53;21897;-67
2021/04/30 01:18:05;;;;;;;5.75;4.25;;;13.00;62.60;;;;;;2352001;53;20998;-66
2021/04/30 01:20:31;;;;;;;6.50;4.03;;;13.00;62.60;;;;;;2360826;53;21399;-66
2021/04/30 01:23:00;;;;;;;5.80;4.15;;;13.00;62.60;;;;;;2369537;53;20974;-65
2021/04/30 01:25:34;;;;;;;6.05;4.25;;;13.00;62.50;;;;;;2350728;53;20971;-67
2021/04/30 01:28:02;;;;;;;6.57;4.78;;;13.00;62.60;;;;;;2369786;53;20942;-66
2021/04/30 01:30:35;;;;;;;5.72;3.67;;;13.00;62.70;;;;;;2601536;52;20939;-65
2021/04/30 01:33:13;;;;;;;6.20;4.00;;;13.00;62.50;;;;;;2618609;52;20914;-68
2021/04/30 01:36:31;;;;;;;6.50;4.03;;;13.00;62.80;;;;;;2622444;52;20962;-65
2021/04/30 01:39:02;;;;;;;5.78;4.07;;;13.00;62.20;;;;;;2370240;53;20990;-65
2021/04/30 01:41:28;;;;;;;6.57;4.05;;;13.00;62.80;;;;;;2369809;53;21010;-66
2021/04/30 01:43:55;;;;;;;5.87;3.78;;;13.00;62.90;;;;;;2368995;53;21037;-65
2021/04/30 01:46:21;;;;;;;6.15;4.20;;;13.00;62.90;;;;;;2622764;52;20970;-67
2021/04/30 01:49:01;;;;;;;6.78;4.37;;;13.00;62.90;;;;;;2352038;53;20970;-67
2021/04/30 01:51:28;;;;;;;5.37;3.60;;;13.00;62.50;;;;;;2349005;54;20994;-65
2021/04/30 01:53:54;;;;;;;6.37;3.70;;;12.90;62.80;;;;;;2346221;53;20925;-67
2021/04/30 01:56:20;;;;;;;7.93;4.28;;;13.00;62.80;;;;;;2362746;53;20986;-66
2021/04/30 01:58:47;;;;;;;5.87;4.20;;;13.00;62.80;;;;;;2359285;53;21028;-65
2021/04/30 02:01:13;;;;;;;6.37;4.15;;;12.90;62.70;;;;;;2346570;53;20979;-66
2021/04/30 02:03:40;;;;;;;6.35;3.75;;;12.90;62.60;;;;;;2513041;52;21008;-67
2021/04/30 02:06:09;;;;;;;5.25;3.83;;;12.90;62.60;;;;;;2346873;53;20955;-65
2021/04/30 02:08:35;;;;;;;7.57;3.90;;;12.90;62.60;;;;;;2361396;53;20978;-64
2021/04/30 02:11:03;;;;;;;6.25;3.80;;;12.90;62.80;;;;;;2371594;53;20942;-68
2021/04/30 02:13:29;;;;;;;6.10;3.72;;;12.90;62.90;;;;;;2371353;53;20963;-65
2021/04/30 02:15:55;;;;;;;5.90;4.00;;;12.80;62.90;;;;;;2371208;53;20966;-65
2021/04/30 02:18:23;;;;;;;5.37;4.03;;;12.80;63.00;;;;;;2370511;53;20922;-66
2021/04/30 02:20:50;;;;;;;7.10;4.47;;;12.80;63.00;;;;;;2358082;53;20931;-67
2021/04/30 02:23:17;;;;;;;6.60;4.68;;;12.80;63.20;;;;;;2364000;53;21450;-66
2021/04/30 02:25:44;;;;;;;5.75;4.30;;;12.80;63.20;;;;;;2545088;52;20938;-67
2021/04/30 02:28:10;;;;;;;5.70;4.30;;;12.80;63.20;;;;;;2371616;53;20947;-65
2021/04/30 02:30:38;;;;;;;6.87;4.37;;;12.80;63.30;;;;;;2370862;54;20995;-67
2021/04/30 02:33:05;;;;;;;7.93;5.20;;;12.80;63.40;;;;;;2365348;53;21042;-66
2021/04/30 02:35:42;;;;;;;7.47;4.30;;;12.80;63.40;;;;;;2371522;53;20902;-66
2021/04/30 02:38:09;;;;;;;7.65;4.47;;;12.80;63.40;;;;;;2371564;53;20959;-66
2021/04/30 02:40:35;;;;;;;5.37;3.67;;;12.80;63.50;;;;;;2371239;53;20926;-68
2021/04/30 02:43:04;;;;;;;7.03;4.12;;;12.70;63.30;;;;;;2457159;52;21378;-65
2021/04/30 02:45:30;;;;;;;6.25;4.53;;;12.80;63.50;;;;;;2588733;53;21064;-65
2021/04/30 02:47:56;;;;;;;7.07;4.90;;;12.80;63.50;;;;;;2370909;53;20948;-65
2021/04/30 02:50:26;;;;;;;6.65;4.75;;;12.80;63.50;;;;;;2332070;54;20983;-65
2021/04/30 02:52:52;;;;;;;8.40;4.43;;;12.80;63.50;;;;;;2370148;53;20915;-67
2021/04/30 02:55:21;;;;;;;6.10;4.35;;;12.80;63.50;;;;;;2353598;53;21496;-68
2021/04/30 02:57:52;;;;;;;6.28;4.40;;;12.80;63.50;;;;;;2370215;53;20928;-66
2021/04/30 03:00:19;;;;;;;6.47;4.47;;;12.80;63.40;;;;;;2335564;54;20947;-68
2021/04/30 03:02:46;;;;;;;8.07;5.03;;;12.80;63.50;;;;;;2364716;53;21797;-66
2021/04/30 03:05:14;;;;;;;6.03;4.32;;;12.80;63.50;;;;;;2577874;52;21022;-67
2021/04/30 03:07:40;;;;;;;7.90;4.45;;;12.70;63.30;;;;;;2598471;52;21011;-67
2021/04/30 03:10:07;;;;;;;6.30;4.00;;;12.80;63.50;;;;;;2619563;52;20998;-67
2021/04/30 03:12:34;;;;;;;5.68;3.87;;;12.70;63.30;;;;;;2593530;52;21049;-67
2021/04/30 03:15:00;;;;;;;5.62;3.83;;;12.70;63.40;;;;;;2349392;53;20946;-65
2021/04/30 03:17:26;;;;;;;6.22;4.22;;;12.70;63.50;;;;;;2370256;53;21015;-65
2021/04/30 03:19:53;;;;;;;5.85;4.28;;;12.70;63.50;;;;;;2352550;53;21842;-68
2021/04/30 03:22:20;;;;;;;6.45;4.03;;;12.70;63.50;;;;;;2370841;53;20946;-66
2021/04/30 03:24:46;;;;;;;7.53;4.12;;;12.70;63.50;;;;;;2370339;53;20982;-67
2021/04/30 03:27:12;;;;;;;6.87;4.82;;;12.70;63.50;;;;;;2569972;52;21836;-66
2021/04/30 03:29:40;;;;;;;6.78;4.60;;;12.70;63.50;;;;;;2341568;53;21450;-67
2021/04/30 03:32:09;;;;;;;8.82;4.72;;;12.70;63.60;;;;;;2367032;53;20929;-66
2021/04/30 03:34:36;;;;;;;6.80;4.55;;;12.70;63.60;;;;;;2371148;53;21674;-66
2021/04/30 03:37:03;;;;;;;6.40;4.25;;;12.70;63.60;;;;;;2371492;53;21453;-65
2021/04/30 03:39:29;;;;;;;7.65;4.68;;;12.70;63.60;;;;;;2624368;52;20922;-65
2021/04/30 03:41:55;;;;;;;5.65;4.30;;;12.70;63.60;;;;;;2371110;53;20938;-66
2021/04/30 03:44:22;;;;;;;6.25;4.37;;;12.70;63.60;;;;;;2365832;53;21323;-64
2021/04/30 03:46:48;;;;;;;5.93;4.15;;;12.70;63.70;;;;;;2372205;53;20946;-66
2021/04/30 03:49:14;;;;;;;6.75;4.30;;;12.70;63.60;;;;;;2371453;53;20981;-65
2021/04/30 03:51:40;;;;;;;6.80;4.28;;;12.70;63.60;;;;;;2370806;53;20985;-67
2021/04/30 03:54:07;;;;;;;6.32;4.15;;;12.60;63.50;;;;;;2371509;53;21727;-65
2021/04/30 03:56:45;;;;;;;6.87;4.55;;;12.60;63.50;;;;;;2370354;53;20992;-66
2021/04/30 03:59:11;;;;;;;6.80;4.70;;;12.60;63.20;;;;;;2501273;52;21828;-64
2021/04/30 04:01:52;;;;;;;6.28;4.10;;;12.60;63.50;;;;;;2348271;54;20961;-67
2021/04/30 04:04:20;;;;;;;7.45;4.75;;;12.60;63.00;;;;;;2599963;52;20940;-65
2021/04/30 04:06:47;;;;;;;8.30;5.12;;;12.60;63.50;;;;;;2368601;53;20930;-65
2021/04/30 04:09:13;;;;;;;7.87;5.10;;;12.60;63.50;;;;;;2371970;53;20974;-65
2021/04/30 04:11:42;;;;;;;6.60;4.57;;;12.60;63.60;;;;;;2370613;53;20938;-67
2021/04/30 04:14:08;;;;;;;7.50;5.12;;;12.60;63.70;;;;;;2371089;53;20954;-65
2021/04/30 04:16:35;;;;;;;6.57;4.25;;;12.60;63.70;;;;;;2367914;53;20922;-66
2021/04/30 04:19:02;;;;;;;7.05;5.07;;;12.50;63.70;;;;;;2371151;53;20878;-65
2021/04/30 04:21:28;;;;;;;7.65;5.05;;;12.50;63.70;;;;;;2371213;53;20965;-65
2021/04/30 04:23:54;;;;;;;10.85;4.65;;;12.60;63.80;;;;;;2339008;53;20949;-65
2021/04/30 04:26:21;;;;;;;6.35;4.60;;;12.50;63.80;;;;;;2358726;53;21021;-65
2021/04/30 04:28:47;;;;;;;9.13;4.75;;;12.50;63.90;;;;;;2355473;54;20946;-66
2021/04/30 04:31:13;;;;;;;7.97;5.07;;;12.50;63.90;;;;;;2370571;53;20950;-66
2021/04/30 04:33:39;;;;;;;7.20;5.07;;;12.50;63.90;;;;;;2370946;53;20929;-67
2021/04/30 04:36:08;;;;;;;6.78;5.18;;;12.50;63.90;;;;;;2368097;53;20977;-65
2021/04/30 04:38:35;;;;;;;7.07;4.97;;;12.50;63.70;;;;;;2369246;53;20940;-65
2021/04/30 04:41:01;;;;;;;6.05;4.55;;;12.50;63.80;;;;;;2464890;52;21079;-66
2021/04/30 04:43:27;;;;;;;6.90;4.80;;;12.50;63.90;;;;;;2334057;53;21522;-66
2021/04/30 04:45:53;;;;;;;7.00;4.85;;;12.40;63.80;;;;;;2476631;52;20970;-66
2021/04/30 04:48:20;;;;;;;7.47;5.47;;;12.40;63.90;;;;;;2486409;52;20977;-65
2021/04/30 04:50:46;;;;;;;7.45;4.82;;;12.40;64.00;;;;;;2362648;53;20930;-65
2021/04/30 04:53:20;;;;;;;7.57;4.80;;;12.40;64.10;;;;;;2585979;52;21862;-65
2021/04/30 04:55:46;;;;;;;5.93;4.43;;;12.50;64.20;;;;;;2337718;54;20950;-67
2021/04/30 04:58:12;;;;;;;7.68;4.72;;;12.50;64.20;;;;;;2335024;55;21376;-66
2021/04/30 05:00:41;;;;;;;6.47;4.65;;;12.50;64.30;;;;;;2351664;53;20950;-65
2021/04/30 05:03:08;;;;;;;7.25;4.62;;;12.40;64.30;;;;;;2343660;53;21194;-65
2021/04/30 05:05:34;;;;;;;6.32;4.37;;;12.40;64.30;;;;;;2360847;53;20946;-68
2021/04/30 05:08:00;;;;;;;7.65;5.32;;;12.50;64.50;;;;;;2361255;53;20966;-67
2021/04/30 05:10:26;;;;;;;7.03;5.03;;;12.40;64.30;;;;;;2360006;53;20934;-65
2021/04/30 05:12:53;;;;;;;7.90;5.25;;;12.50;64.40;;;;;;2611386;52;21954;-65
2021/04/30 05:15:19;;;;;;;7.37;5.32;;;12.40;65.00;;;;;;2585202;53;21483;-68
2021/04/30 05:17:45;;;;;;;7.32;5.03;;;12.40;64.30;;;;;;2349751;53;21012;-66
2021/04/30 05:20:13;;;;;;;8.13;5.47;;;12.40;64.30;;;;;;2364547;53;21002;-65
2021/04/30 05:22:42;;;;;;;9.25;6.03;;;12.40;64.30;;;;;;2363972;53;20934;-67
2021/04/30 05:25:11;;;;;;;8.80;5.87;;;12.40;64.30;;;;;;2365519;53;21496;-68
2021/04/30 05:27:41;;;;;;;8.50;6.28;;;12.40;64.20;;;;;;2346419;53;21400;-67
2021/04/30 05:30:11;;;;;;;10.27;6.87;;;12.40;64.20;;;;;;2361993;53;20960;-66
2021/04/30 05:32:37;;;;;;;10.40;6.47;;;12.30;64.10;;;;;;2378988;53;21448;-66
2021/04/30 05:35:05;;;;;;;9.02;6.22;;;12.30;64.20;;;;;;2358953;53;21017;-67
2021/04/30 05:37:31;;;;;;;10.20;6.47;;;12.30;64.20;;;;;;2356281;53;20946;-65
2021/04/30 05:39:58;;;;;;;9.32;6.47;;;12.20;64.10;;;;;;2321938;54;20917;-67
2021/04/30 05:42:27;;;;;;;11.65;6.95;;;12.20;64.20;;;;;;2600574;52;20911;-65
2021/04/30 05:44:53;;;;;;;9.48;6.18;;;12.20;64.20;;;;;;2349325;53;21367;-67
2021/04/30 05:47:20;;;;;;;8.45;6.40;;;12.20;64.30;;;;;;2351981;53;20950;-66
2021/04/30 05:49:47;;;;;;;8.52;6.32;;;12.20;64.30;;;;;;2354462;53;22063;-67
2021/04/30 05:52:13;;;;;;;9.48;6.65;;;12.10;64.10;;;;;;2479187;53;21444;-66
2021/04/30 05:54:39;;;;;;;8.38;6.00;;;12.10;64.00;;;;;;2356400;53;20966;-68
2021/04/30 05:57:33;;;;;;;9.10;5.87;;;12.10;63.90;;;;;;2352204;53;21725;-67
2021/04/30 06:00:00;;;;;;;9.05;5.47;;;12.10;63.30;;;;;;2352010;53;20926;-65
2021/04/30 06:02:26;;;;;;;10.00;6.18;;;12.00;63.80;;;;;;2537466;52;20957;-67
2021/04/30 06:04:53;;;;;;;8.50;5.28;;;12.00;63.80;;;;;;2327017;53;20979;-67
2021/04/30 06:07:19;;;;;;;9.05;6.07;;;11.90;63.70;;;;;;2339273;53;21119;-66
2021/04/30 06:09:45;;;;;;;7.93;5.82;;;11.90;63.70;;;;;;2336106;53;20902;-67
2021/04/30 06:12:11;;;;;;;8.00;5.68;;;11.90;63.80;;;;;;2340775;53;20963;-65
2021/04/30 06:14:38;;;;;;;8.70;5.60;;;11.90;63.80;;;;;;2548011;53;20960;-66
2021/04/30 06:17:05;;;;;;;7.28;4.87;;;11.90;64.00;;;;;;2357207;53;20970;-66
2021/04/30 06:19:31;;;;;;;7.60;5.80;;;11.90;64.00;;;;;;2359583;53;21935;-67
2021/04/30 06:21:57;;;;;;;7.82;5.75;;;11.90;64.10;;;;;;2606188;52;20985;-68
2021/04/30 06:24:24;;;;;;;8.27;4.87;;;11.90;64.00;;;;;;2354959;53;20977;-67
2021/04/30 06:26:51;;;;;;;7.15;5.30;;;11.90;64.00;;;;;;2601626;52;20968;-65
2021/04/30 06:29:17;;;;;;;7.40;5.43;;;11.90;64.00;;;;;;2335988;53;21799;-67
2021/04/30 06:31:44;;;;;;;6.78;4.97;;;11.90;64.10;;;;;;2354667;53;20997;-65
2021/04/30 06:34:10;;;;;;;7.75;5.47;;;11.90;64.20;;;;;;2597327;52;20945;-67
2021/04/30 06:36:37;;;;;;;7.25;4.95;;;11.90;64.10;;;;;;2548076;53;21076;-65
2021/04/30 06:39:04;;;;;;;6.85;5.22;;;11.90;63.90;;;;;;2369290;53;21017;-67
2021/04/30 06:41:30;;;;;;;7.28;5.20;;;11.90;63.90;;;;;;2329563;53;21017;-65
2021/04/30 06:43:57;;;;;;;7.37;4.93;;;11.90;63.80;;;;;;2352891;53;21982;-68
2021/04/30 06:46:24;;;;;;;8.32;5.47;;;11.90;63.70;;;;;;2324932;54;20907;-67
2021/04/30 06:48:53;;;;;;;7.90;5.45;;;11.90;63.60;;;;;;2329761;54;20953;-69
2021/04/30 06:51:21;;;;;;;8.07;5.75;;;11.90;63.60;;;;;;2446200;52;21031;-66
2021/04/30 06:53:47;;;;;;;8.80;6.43;;;11.90;63.40;;;;;;2559852;53;21035;-66
2021/04/30 06:56:13;;;;;;;8.18;5.68;;;11.80;63.40;;;;;;2352735;53;20910;-65
2021/04/30 06:58:40;;;;;;;7.35;6.03;;;11.80;63.30;;;;;;2352522;53;20946;-65
2021/04/30 07:01:09;;;;;;;9.10;6.60;;;11.80;63.30;;;;;;2337442;53;20943;-66
2021/04/30 07:03:36;;;;;;;8.27;5.57;;;11.80;63.30;;;;;;2351653;53;20939;-66
2021/04/30 07:06:05;;;;;;;8.00;5.37;;;11.80;63.30;;;;;;2343178;53;20950;-66
2021/04/30 07:08:31;;;;;;;7.20;5.15;;;11.70;63.30;;;;;;2358737;53;20934;-66
2021/04/30 07:10:57;;;;;;;8.40;6.12;;;11.70;63.30;;;;;;2355238;53;20942;-66
2021/04/30 07:13:26;;;;;;;8.18;6.05;;;11.70;63.30;;;;;;2338136;53;21024;-65
2021/04/30 07:15:52;;;;;;;8.45;6.28;;;11.70;63.30;;;;;;2336058;53;21434;-67
2021/04/30 07:18:18;;;;;;;8.98;5.78;;;11.70;63.20;;;;;;2353377;53;21585;-67
2021/04/30 07:20:46;;;;;;;11.45;6.22;;;11.70;63.20;;;;;;2344844;53;20946;-67
2021/04/30 07:23:13;;;;;;;9.13;6.50;;;11.60;63.10;;;;;;2331309;53;20962;-67
2021/04/30 07:25:39;;;;;;;9.75;6.47;;;11.60;63.00;;;;;;2342078;53;22021;-66
2021/04/30 07:28:05;;;;;;;8.40;6.22;;;11.60;63.00;;;;;;2349235;53;20918;-66
2021/04/30 07:30:31;;;;;;;8.77;6.30;;;11.60;63.00;;;;;;2356232;53;20971;-66
2021/04/30 07:32:59;;;;;;;8.35;5.93;;;11.60;63.00;;;;;;2594008;52;21846;-64
2021/04/30 07:35:35;;;;;;;10.05;6.37;;;11.60;62.90;;;;;;2325539;54;21041;-66
2021/04/30 07:38:02;;;;;;;11.38;7.15;;;11.50;62.80;;;;;;2349477;54;20910;-66
2021/04/30 07:40:29;;;;;;;11.12;8.45;;;11.50;62.80;;;;;;2342038;54;21026;-66
2021/04/30 07:42:56;;;;;;;10.80;7.53;;;11.50;62.90;;;;;;2361510;53;21763;-66
2021/04/30 07:45:22;;;;;;;11.10;7.62;;;11.40;62.80;;;;;;2358390;53;21472;-67
2021/04/30 07:47:48;;;;;;;10.20;7.17;;;11.40;62.90;;;;;;2374564;52;1354185;-67
2021/04/30 07:50:15;;;;;;;10.25;7.45;;;11.40;63.00;;;;;;2333674;53;20937;-66
2021/04/30 07:52:41;;;;;;;9.63;7.15;;;11.40;63.00;;;;;;2321187;54;21459;-67
2021/04/30 07:55:08;;;;;;;10.48;7.43;;;11.40;63.10;;;;;;2347668;54;21486;-65
2021/04/30 07:57:35;;;;;;;10.77;7.30;;;11.30;62.90;;;;;;2401487;52;20974;-65
2021/04/30 08:00:02;;;;;;;10.35;7.50;;;11.30;62.90;;;;;;2361765;53;20962;-65
2021/04/30 08:02:29;;;;;;;12.30;8.00;;;11.30;62.90;;;;;;2613861;52;22881;-67
2021/04/30 08:04:55;;;;;;;11.43;8.07;;;11.30;62.80;;;;;;2364523;53;21002;-67
2021/04/30 08:07:22;;;;;;;12.15;7.90;;;11.30;62.90;;;;;;2347480;53;21780;-67
2021/04/30 08:09:53;;;;;;;12.55;7.87;;;11.30;62.90;;;;;;2358110;53;20922;-67
2021/04/30 08:12:21;;;;;;;10.98;7.22;;;11.20;62.80;;;;;;2450323;52;20993;-67
2021/04/30 08:14:48;;;;;;;10.55;7.37;;;11.20;62.90;;;;;;2361067;53;20950;-66
2021/04/30 08:17:14;;;;;;;9.75;7.80;;;11.20;63.20;;;;;;2360199;53;20942;-66
2021/04/30 08:19:41;;;;;;;12.27;8.57;;;11.20;63.10;;;;;;2360434;53;20974;-66
2021/04/30 08:22:07;;;;;;;9.13;7.22;;;11.20;63.10;;;;;;2321850;53;20921;-65
2021/04/30 08:24:33;;;;;;;10.68;8.18;;;11.30;63.30;;;;;;2332088;54;22181;-65
2021/04/30 08:27:00;;;;;;;14.27;8.02;;;11.20;63.20;;;;;;2334980;54;20990;-66
2021/04/30 08:29:26;;;;;;;12.18;8.20;;;11.30;63.30;;;;;;2332544;54;21627;-66
2021/04/30 08:31:52;;;;;;;10.30;7.47;;;11.20;63.10;;;;;;2331456;53;21536;-68
2021/04/30 08:34:18;;;;;;;10.82;8.20;;;11.30;63.30;;;;;;2351373;53;21009;-65
2021/04/30 08:36:48;;;;;;;11.27;7.95;;;11.30;63.30;;;;;;2316237;54;21000;-67
2021/04/30 08:39:15;;;;;;;12.07;8.32;;;11.30;63.30;;;;;;2330314;53;20923;-66
2021/04/30 08:41:41;;;;;;;11.82;8.57;;;11.30;63.30;;;;;;2330321;53;20930;-67
2021/04/30 08:44:09;;;;;;;13.88;8.75;;;11.30;63.30;;;;;;2326982;53;21004;-66
2021/04/30 08:46:35;;;;;;;13.82;8.90;;;11.30;63.30;;;;;;2326038;53;21481;-65
2021/04/30 08:49:05;;;;;;;13.65;9.60;;;11.30;63.40;;;;;;2327574;53;21008;-67
2021/04/30 08:51:35;;;;;;;13.60;9.85;;;11.30;63.10;;;;;;2319468;53;21500;-66
2021/04/30 08:54:02;;;;;;;13.93;10.00;;;11.30;63.30;;;;;;2570856;52;20953;-66
2021/04/30 08:56:29;;;;;;;15.85;9.52;;;11.30;63.30;;;;;;2327628;53;20925;-66
2021/04/30 08:58:56;;;;;;;12.85;8.90;;;11.20;63.20;;;;;;2336767;53;21079;-66
2021/04/30 09:01:23;;;;;;;13.80;10.30;;;11.20;63.20;;;;;;2343601;53;22244;-67
2021/04/30 09:03:52;;;;;;;15.45;9.85;;;11.20;63.40;;;;;;2345158;53;21020;-65
2021/04/30 09:06:34;;;;;;;13.00;9.52;;;11.10;63.20;;;;;;2353852;53;21026;-67
2021/04/30 09:09:13;;;;;;;13.43;9.13;;;11.10;63.10;;;;;;2335221;53;22024;-67
2021/04/30 09:11:42;;;;;;;11.98;8.57;;;11.10;63.30;;;;;;2350125;53;20940;-64
2021/04/30 09:16:03;;;;;;;13.23;9.57;;;11.00;63.50;;;;;;2330794;53;20991;-65
2021/04/30 09:18:33;;;;;;;13.48;9.10;;;11.00;62.90;;;;;;2326389;54;20973;-65
2021/04/30 09:21:07;;;;;;;14.23;9.75;;;11.00;63.60;;;;;;2345517;53;21514;-64
2021/04/30 09:23:41;;;;;;;12.63;8.55;;;10.90;63.50;;;;;;2446234;52;20951;-65
2021/04/30 09:26:31;;;;;;;13.82;9.63;;;10.90;64.50;;;;;;2557849;52;21016;-66
2021/04/30 09:29:12;;;;;;;14.63;9.93;;;10.90;63.60;;;;;;2350200;53;21014;-65
2021/04/30 09:31:39;;;;;;;13.20;9.40;;;10.80;63.90;;;;;;2356158;53;20938;-65
2021/04/30 09:35:06;;;;;;;12.40;9.05;;;10.80;64.10;;;;;;2328012;53;20997;-66
2021/04/30 09:37:33;;;;;;;11.65;8.23;;;10.80;63.80;;;;;;2354717;53;21774;-66
2021/04/30 09:40:00;;;;;;;12.63;9.27;;;10.80;64.50;;;;;;2358940;53;20954;-65
2021/04/30 09:42:27;;;;;;;12.85;9.68;;;10.80;64.70;;;;;;2358583;53;20988;-66
2021/04/30 09:45:01;;;;;;;14.27;9.85;;;10.70;64.70;;;;;;2358103;53;21458;-64
2021/04/30 09:47:29;;;;;;;13.30;9.65;;;10.70;64.70;;;;;;2358694;53;20987;-65
2021/04/30 09:49:57;;;;;;;12.82;9.55;;;10.70;64.80;;;;;;2359677;53;21238;-64
2021/04/30 09:52:24;;;;;;;15.23;9.55;;;10.70;64.90;;;;;;2460323;52;20954;-66
2021/04/30 09:54:53;;;;;;;14.38;9.70;;;10.70;65.10;;;;;;2343724;54;20914;-65
2021/04/30 09:57:23;;;;;;;13.77;10.10;;;10.80;65.30;;;;;;2337768;53;20957;-66
2021/04/30 10:00:13;;;;;;;14.73;10.15;;;10.70;65.20;;;;;;2329127;53;20968;-66
2021/04/30 10:02:40;;;;;;;14.00;10.15;;;10.70;64.90;;;;;;2339467;53;21139;-66
2021/04/30 10:05:14;;;;;;;12.95;9.60;;;10.70;65.00;;;;;;2551765;53;21016;-66
2021/04/30 10:07:44;;;;;;;14.52;9.32;;;10.70;65.00;;;;;;2320831;54;21473;-64
2021/04/30 10:10:15;;;;;;;13.90;10.45;;;10.70;65.30;;;;;;2358625;54;20990;-64
2021/04/30 10:12:46;;;;;;;14.07;10.25;;;10.70;65.40;;;;;;2366384;53;20946;-65
2021/04/30 10:15:15;;;;;;;13.77;10.05;;;10.70;66.20;;;;;;2365007;53;21461;-65
2021/04/30 10:17:43;;;;;;;15.50;10.75;;;10.70;65.50;;;;;;2359834;53;21051;-64
2021/04/30 10:20:15;;;;;;;15.43;10.73;;;10.70;65.50;;;;;;2349818;53;21013;-65
2021/04/30 10:22:42;;;;;;;14.02;10.32;;;10.70;65.50;;;;;;2365670;53;20966;-64
2021/04/30 10:25:15;;;;;;;15.52;9.38;;;10.70;65.60;;;;;;2364105;53;20962;-64
2021/04/30 10:27:43;;;;;;;14.55;9.90;;;10.70;65.90;;;;;;2361648;53;20955;-66
2021/04/30 10:30:30;;;;;;;14.32;10.05;;;10.70;66.10;;;;;;2361078;53;20934;-66
2021/04/30 10:33:24;;;;;;;15.90;10.60;;;10.70;66.70;;;;;;2338912;53;21038;-64
2021/04/30 10:36:17;;;;;;;13.70;9.52;;;10.70;66.10;;;;;;2349048;53;21023;-65
2021/04/30 10:38:55;;;;;;;14.00;10.35;;;10.80;66.20;;;;;;2349539;54;21002;-66
2021/04/30 10:41:29;;;;;;;16.67;10.65;;;10.80;66.40;;;;;;2613713;52;20997;-66
2021/04/30 10:44:17;;;;;;;16.20;10.07;;;10.80;66.40;;;;;;2334242;53;21817;-65
2021/04/30 10:53:36;;;;;;;14.60;10.02;;;10.80;66.20;;;;;;2329771;53;20947;-65
2021/04/30 10:56:25;;;;;;;11.73;7.68;;;10.80;66.30;;;;;;2573937;53;21703;-65
2021/04/30 10:58:51;;;;;;;12.80;8.75;;;10.90;65.70;;;;;;2331686;53;20971;-64
2021/04/30 11:01:24;;;;;;;12.23;8.95;;;10.90;66.20;;;;;;2329909;53;21655;-64
2021/04/30 11:04:13;;;;;;;14.05;10.05;;;10.90;66.20;;;;;;2571304;53;20983;-65
2021/04/30 11:06:46;;;;;;;13.27;9.40;;;10.90;66.10;;;;;;2575365;53;20990;-65
2021/04/30 11:09:14;;;;;;;12.20;9.00;;;10.90;66.30;;;;;;2335427;53;20944;-65
2021/04/30 11:11:42;;;;;;;12.85;9.15;;;10.90;66.40;;;;;;2334718;53;21023;-65
2021/04/30 11:14:24;;;;;;;14.02;10.35;;;10.90;66.40;;;;;;2396943;53;20952;-65
2021/04/30 11:16:52;;;;;;;12.90;9.43;;;10.90;66.20;;;;;;2339240;53;20957;-65
2021/04/30 11:19:19;;;;;;;14.80;9.57;;;10.90;66.30;;;;;;2560435;53;23153;-64
2021/04/30 11:21:49;;;;;;;12.70;10.10;;;10.90;66.30;;;;;;2341018;53;20988;-64
2021/04/30 11:24:35;;;;;;;13.62;9.57;;;10.90;66.30;;;;;;2344149;53;20976;-66
2021/04/30 11:27:29;;;;;;;16.20;9.68;;;10.90;66.00;;;;;;2352657;53;21034;-66
2021/04/30 11:30:17;;;;;;;12.90;9.30;;;10.80;65.90;;;;;;2338028;53;21519;-66
2021/04/30 11:32:49;;;;;;;13.30;9.32;;;10.80;66.00;;;;;;2329793;53;20940;-65
2021/04/30 11:35:15;;;;;;;13.13;9.23;;;10.80;66.20;;;;;;2517913;52;21001;-64
2021/04/30 11:37:42;;;;;;;12.60;9.48;;;10.80;67.00;;;;;;2320632;54;20949;-65
2021/04/30 11:40:17;;;;;;;12.52;9.05;;;10.80;66.50;;;;;;2333176;53;20944;-67
2021/04/30 11:42:43;;;;;;;13.98;9.60;;;10.80;66.70;;;;;;2336840;53;21550;-66
2021/04/30 11:45:10;;;;;;;13.18;8.90;;;10.80;66.80;;;;;;2337447;53;21003;-66
2021/04/30 11:47:40;;;;;;;12.52;8.60;;;10.80;67.00;;;;;;2451637;53;20955;-64
2021/04/30 11:50:21;;;;;;;11.40;8.25;;;10.90;67.40;;;;;;2337083;53;21403;-66
2021/04/30 11:52:47;;;;;;;12.00;7.97;;;10.90;67.50;;;;;;2336652;54;20975;-66
2021/04/30 11:55:15;;;;;;;13.43;8.57;;;11.00;67.80;;;;;;2321325;54;21067;-64
2021/04/30 11:57:41;;;;;;;13.80;9.30;;;11.10;68.40;;;;;;2317699;54;21561;-65
2021/04/30 12:00:10;;;;;;;13.80;9.00;;;11.10;67.50;;;;;;2331996;54;21558;-66
2021/04/30 12:02:36;;;;;;;11.30;8.05;;;11.20;67.60;;;;;;2313656;54;21861;-65
2021/04/30 12:05:06;;;;;;;12.70;8.98;;;11.20;67.50;;;;;;2317078;54;21520;-67
2021/04/30 12:07:34;;;;;;;12.40;9.50;;;11.20;67.50;;;;;;2329978;54;20937;-65
2021/04/30 12:10:01;;;;;;;13.25;8.95;;;11.30;67.50;;;;;;2331446;54;21013;-66
2021/04/30 12:12:29;;;;;;;12.68;8.93;;;11.30;67.20;;;;;;2329663;54;20953;-65
2021/04/30 12:15:00;;;;;;;11.90;8.18;;;11.40;67.00;;;;;;2307286;54;20932;-64
2021/04/30 12:17:40;;;;;;;13.18;8.45;;;11.40;66.70;;;;;;2333222;54;20981;-65
2021/04/30 12:20:20;;;;;;;11.30;8.20;;;11.40;66.60;;;;;;2326677;54;22089;-65
2021/04/30 12:22:59;;;;;;;10.32;7.80;;;11.40;66.40;;;;;;2313555;54;20967;-66
2021/04/30 12:25:28;;;;;;;11.32;8.15;;;11.40;66.60;;;;;;2315702;53;20983;-66
2021/04/30 12:28:21;;;;;;;12.52;8.80;;;11.40;66.90;;;;;;2321044;54;20888;-65
2021/04/30 12:31:08;;;;;;;10.77;8.00;;;11.50;66.90;;;;;;2325903;54;20919;-66
2021/04/30 12:33:46;;;;;;;11.65;8.23;;;11.50;67.30;;;;;;2547067;53;21006;-65
2021/04/30 12:36:24;;;;;;;11.63;8.23;;;11.60;67.50;;;;;;2305989;54;20985;-67
2021/04/30 12:38:55;;;;;;;11.88;8.88;;;11.60;67.60;;;;;;2326663;54;21788;-64
2021/04/30 12:41:26;;;;;;;11.57;8.55;;;11.70;67.50;;;;;;2322577;53;21048;-66
2021/04/30 12:44:05;;;;;;;11.80;9.03;;;11.70;67.30;;;;;;2322734;54;22367;-66
2021/04/30 12:46:36;;;;;;;14.13;9.10;;;11.70;66.80;;;;;;2303256;53;21008;-64
2021/04/30 12:49:09;;;;;;;12.63;8.50;;;11.80;67.00;;;;;;2537916;53;21531;-67
2021/04/30 12:51:37;;;;;;;11.73;8.55;;;11.80;66.80;;;;;;2339860;53;20991;-65
2021/04/30 12:54:04;;;;;;;10.68;8.27;;;11.80;66.80;;;;;;2344025;52;20900;-66
2021/04/30 12:56:40;;;;;;;12.77;8.43;;;11.80;66.70;;;;;;2358400;53;20986;-64
2021/04/30 12:59:14;;;;;;;11.85;8.55;;;11.90;66.50;;;;;;2356915;52;21622;-65
2021/04/30 13:01:41;;;;;;;12.02;8.45;;;11.90;66.90;;;;;;2609125;52;20970;-66
2021/04/30 13:04:08;;;;;;;13.23;8.68;;;11.90;67.20;;;;;;2614339;52;21125;-65